createdAt,value
2022-07-29T00:01:01.983Z,4.80
2022-07-29T00:03:28.469Z,4.63
2022-07-29T00:05:55.005Z,5.07
2022-07-29T00:08:21.683Z,5.50
2022-07-29T00:10:48.889Z,4.95
2022-07-29T00:13:15.554Z,5.13
2022-07-29T00:15:42.271Z,5.15
2022-07-29T00:18:08.769Z,5.00
2022-07-29T00:20:35.239Z,5.00
2022-07-29T00:25:28.241Z,5.03
2022-07-29T00:27:54.755Z,5.20
2022-07-29T00:30:21.430Z,5.28
2022-07-29T00:32:47.851Z,4.85
2022-07-29T00:38:00.065Z,4.80
2022-07-29T00:40:28.823Z,4.63
2022-07-29T00:42:55.391Z,4.97
2022-07-29T00:45:23.053Z,5.50
2022-07-29T00:47:49.963Z,4.90
2022-07-29T00:50:16.731Z,5.55
2022-07-29T00:52:43.654Z,5.40
2022-07-29T00:55:14.351Z,5.10
2022-07-29T00:57:42.789Z,4.82
2022-07-29T01:00:13.294Z,5.38
2022-07-29T01:02:39.767Z,4.97
2022-07-29T01:05:06.959Z,5.35
2022-07-29T01:07:35.911Z,5.38
2022-07-29T01:10:07.331Z,5.47
2022-07-29T01:12:36.305Z,5.82
2022-07-29T01:15:05.632Z,5.50
2022-07-29T01:17:41.862Z,5.55
2022-07-29T01:20:54.204Z,5.43
2022-07-29T01:23:39.135Z,5.00
2022-07-29T01:26:17.031Z,5.90
2022-07-29T01:29:06.113Z,5.63
2022-07-29T01:34:09.532Z,6.35
2022-07-29T01:36:49.419Z,5.90
2022-07-29T01:39:33.402Z,5.85
2022-07-29T01:42:11.878Z,5.70
2022-07-29T01:45:05.552Z,5.55
2022-07-29T01:48:11.091Z,5.40
2022-07-29T01:50:44.486Z,5.90
2022-07-29T01:53:13.533Z,6.20
2022-07-29T01:55:43.542Z,5.60
2022-07-29T01:58:11.722Z,5.68
2022-07-29T02:00:39.872Z,5.90
2022-07-29T02:03:12.893Z,5.70
2022-07-29T02:05:43.229Z,5.72
2022-07-29T02:08:11.762Z,6.18
2022-07-29T02:24:26.112Z,6.07
2022-07-29T02:26:56.044Z,6.57
2022-07-29T02:29:24.600Z,5.88
2022-07-29T02:31:52.494Z,5.63
2022-07-29T02:34:21.726Z,6.40
2022-07-29T02:36:50.320Z,5.57
2022-07-29T02:39:18.104Z,6.00
2022-07-29T02:41:48.656Z,5.72
2022-07-29T02:44:18.402Z,6.15
2022-07-29T02:47:13.211Z,6.45
2022-07-29T02:49:47.843Z,5.75
2022-07-29T02:52:21.239Z,6.13
2022-07-29T02:54:55.932Z,5.75
2022-07-29T02:57:53.939Z,5.75
2022-07-29T03:00:24.517Z,6.03
2022-07-29T03:02:54.633Z,5.82
2022-07-29T03:05:22.797Z,5.60
2022-07-29T03:08:06.740Z,5.55
2022-07-29T03:10:33.875Z,5.70
2022-07-29T03:13:01.279Z,5.68
2022-07-29T03:15:28.097Z,6.07
2022-07-29T03:17:56.471Z,6.80
2022-07-29T03:20:23.112Z,6.07
2022-07-29T03:22:49.727Z,6.28
2022-07-29T03:25:18.307Z,6.00
2022-07-29T03:27:45.483Z,5.65
2022-07-29T03:30:18.196Z,6.18
2022-07-29T03:32:48.523Z,6.20
2022-07-29T03:35:17.405Z,6.15
2022-07-29T03:37:45.069Z,6.32
2022-07-29T03:40:18.254Z,6.38
2022-07-29T03:42:46.614Z,6.22
2022-07-29T03:45:16.679Z,6.20
2022-07-29T03:47:59.910Z,6.28
2022-07-29T03:50:30.874Z,6.13
2022-07-29T03:52:58.379Z,6.35
2022-07-29T03:55:25.825Z,6.03
2022-07-29T03:57:53.134Z,6.20
2022-07-29T04:00:20.459Z,5.53
2022-07-29T04:02:49.346Z,5.78
2022-07-29T04:05:17.259Z,6.35
2022-07-29T04:07:48.553Z,5.88
2022-07-29T04:10:16.695Z,5.80
2022-07-29T04:12:44.253Z,5.72
2022-07-29T04:15:11.798Z,6.03
2022-07-29T04:17:38.711Z,5.72
2022-07-29T04:20:05.924Z,6.22
2022-07-29T04:22:32.352Z,5.70
2022-07-29T04:27:30.563Z,5.97
2022-07-29T04:32:25.446Z,6.13
2022-07-29T04:34:51.918Z,6.18
2022-07-29T04:39:44.739Z,5.55
2022-07-29T04:44:39.735Z,5.47
2022-07-29T04:47:09.689Z,5.88
2022-07-29T04:49:39.058Z,6.00
2022-07-29T04:52:06.752Z,5.78
2022-07-29T04:54:33.349Z,5.90
2022-07-29T04:56:59.887Z,5.95
2022-07-29T05:01:54.144Z,6.50
2022-07-29T05:04:21.033Z,5.90
2022-07-29T05:06:47.704Z,6.50
2022-07-29T05:11:40.611Z,5.47
2022-07-29T05:14:07.060Z,5.82
2022-07-29T05:19:00.972Z,5.65
2022-07-29T05:21:27.388Z,5.47
2022-07-29T05:26:20.220Z,5.82
2022-07-29T05:31:15.464Z,5.60
2022-07-29T05:33:42.644Z,5.85
2022-07-29T05:36:09.187Z,6.10
2022-07-29T05:38:36.775Z,5.43
2022-07-29T05:41:03.428Z,5.50
2022-07-29T05:45:57.322Z,4.80
2022-07-29T05:48:24.072Z,5.90
2022-07-29T05:50:50.576Z,5.30
2022-07-29T05:55:48.149Z,5.30
2022-07-29T05:58:14.636Z,5.47
2022-07-29T06:03:07.838Z,5.20
2022-07-29T06:05:34.323Z,5.63
2022-07-29T06:10:27.766Z,5.07
2022-07-29T06:12:54.607Z,5.65
2022-07-29T06:15:21.186Z,5.13
2022-07-29T06:18:00.065Z,5.03
2022-07-29T06:20:31.116Z,4.80
2022-07-29T06:22:58.145Z,5.30
2022-07-29T06:25:24.617Z,5.22
2022-07-29T06:27:51.056Z,4.75
2022-07-29T06:30:17.556Z,5.00
2022-07-29T06:32:44.012Z,4.97
2022-07-29T06:35:39.214Z,4.97
2022-07-29T06:37:58.026Z,4.80
2022-07-29T06:40:45.346Z,4.57
2022-07-29T06:43:12.355Z,5.05
2022-07-29T06:45:42.030Z,4.60
2022-07-29T06:48:08.922Z,4.75
2022-07-29T06:50:35.562Z,4.78
2022-07-29T06:53:02.238Z,4.18
2022-07-29T06:55:28.806Z,4.75
2022-07-29T06:57:55.296Z,4.60
2022-07-29T07:00:21.942Z,4.20
2022-07-29T07:02:48.811Z,4.30
2022-07-29T07:05:15.430Z,4.25
2022-07-29T07:07:42.189Z,4.28
2022-07-29T07:10:09.124Z,3.80
2022-07-29T07:12:35.759Z,4.18
2022-07-29T07:15:02.243Z,3.72
2022-07-29T07:17:28.781Z,4.03
2022-07-29T07:19:55.735Z,4.20
2022-07-29T07:22:22.291Z,3.97
2022-07-29T07:24:48.739Z,4.30
2022-07-29T07:27:15.357Z,4.20
2022-07-29T07:29:42.104Z,3.60
2022-07-29T07:32:10.950Z,4.00
2022-07-29T07:34:38.744Z,4.38
2022-07-29T07:37:06.430Z,4.07
2022-07-29T07:39:32.960Z,4.20
2022-07-29T07:41:59.715Z,3.97
2022-07-29T07:44:26.161Z,4.40
2022-07-29T07:46:53.332Z,4.25
2022-07-29T07:49:21.737Z,3.88
2022-07-29T07:51:50.318Z,3.80
2022-07-29T07:54:18.450Z,4.43
2022-07-29T07:56:49.819Z,3.53
2022-07-29T07:59:19.364Z,4.15
2022-07-29T08:01:48.403Z,4.00
2022-07-29T08:04:27.739Z,4.07
2022-07-29T08:06:56.388Z,4.20
2022-07-29T08:09:30.944Z,3.75
2022-07-29T08:11:59.448Z,4.18
2022-07-29T08:14:26.139Z,4.03
2022-07-29T08:16:52.820Z,4.10
2022-07-29T08:19:19.469Z,3.67
2022-07-29T08:21:46.322Z,3.50
2022-07-29T08:24:31.577Z,3.50
2022-07-29T08:26:58.107Z,4.38
2022-07-29T08:29:24.540Z,4.03
2022-07-29T08:31:51.252Z,4.35
2022-07-29T08:34:17.910Z,4.00
2022-07-29T08:36:44.645Z,4.03
2022-07-29T08:39:16.689Z,3.97
2022-07-29T08:41:53.082Z,3.50
2022-07-29T08:44:30.497Z,3.90
2022-07-29T08:46:57.911Z,3.90
2022-07-29T08:49:24.685Z,3.72
2022-07-29T08:51:53.126Z,3.83
2022-07-29T08:54:20.859Z,3.42
2022-07-29T08:56:51.214Z,3.53
2022-07-29T08:59:21.798Z,3.30
2022-07-29T09:01:53.671Z,3.80
2022-07-29T09:04:21.666Z,3.47
2022-07-29T09:06:52.639Z,3.58
2022-07-29T09:09:19.273Z,3.75
2022-07-29T09:11:45.877Z,3.70
2022-07-29T09:14:14.244Z,3.45
2022-07-29T09:16:53.847Z,3.80
2022-07-29T09:19:25.964Z,3.33
2022-07-29T09:21:59.704Z,3.80
2022-07-29T09:24:48.355Z,3.70
2022-07-29T09:27:27.381Z,3.75
2022-07-29T09:29:58.569Z,3.85
2022-07-29T09:32:25.447Z,3.70
2022-07-29T09:34:55.680Z,3.60
2022-07-29T09:37:29.441Z,3.70
2022-07-29T09:39:56.216Z,3.83
2022-07-29T09:42:33.490Z,4.72
2022-07-29T09:45:00.060Z,3.90
2022-07-29T09:47:42.304Z,3.90
2022-07-29T09:50:09.048Z,3.55
2022-07-29T09:52:46.119Z,4.25
2022-07-29T09:55:13.613Z,4.22
2022-07-29T09:57:46.025Z,3.65
2022-07-29T10:00:20.691Z,3.88
2022-07-29T10:02:48.128Z,3.88
2022-07-29T10:05:23.855Z,3.45
2022-07-29T10:07:57.475Z,3.60
2022-07-29T10:10:31.648Z,4.07
2022-07-29T10:13:07.955Z,3.63
2022-07-29T10:15:40.005Z,3.30
2022-07-29T10:18:11.644Z,4.47
2022-07-29T10:20:39.425Z,3.63
2022-07-29T10:23:05.931Z,3.70
2022-07-29T10:25:32.985Z,3.58
2022-07-29T10:27:59.731Z,3.78
2022-07-29T10:30:27.234Z,3.85
2022-07-29T10:33:12.797Z,4.03
2022-07-29T10:36:04.123Z,3.45
2022-07-29T10:38:49.384Z,3.60
2022-07-29T10:41:31.983Z,3.90
2022-07-29T10:44:06.436Z,4.05
2022-07-29T10:46:39.065Z,3.30
2022-07-29T10:49:16.918Z,3.20
2022-07-29T10:51:59.231Z,3.92
2022-07-29T10:54:42.554Z,3.20
2022-07-29T10:57:53.710Z,3.22
2022-07-29T11:00:19.484Z,3.58
2022-07-29T11:02:49.502Z,3.10
2022-07-29T11:05:20.051Z,3.72
2022-07-29T11:08:19.994Z,3.38
2022-07-29T11:10:49.644Z,3.47
2022-07-29T11:13:53.241Z,3.17
2022-07-29T11:19:13.937Z,3.05
2022-07-29T11:21:54.169Z,3.05
2022-07-29T11:24:30.155Z,3.35
2022-07-29T11:27:31.607Z,3.60
2022-07-29T11:30:03.311Z,3.10
2022-07-29T11:32:39.772Z,3.28
2022-07-29T11:35:17.157Z,3.00
2022-07-29T11:38:21.023Z,3.50
2022-07-29T11:41:27.240Z,3.20
2022-07-29T11:44:13.500Z,3.13
2022-07-29T11:46:49.560Z,2.83
2022-07-29T11:49:32.147Z,2.70
2022-07-29T11:52:02.344Z,3.28
2022-07-29T11:54:57.487Z,2.92
2022-07-29T11:57:21.900Z,2.83
2022-07-29T11:59:48.774Z,3.00
2022-07-29T12:02:37.400Z,2.58
2022-07-29T12:05:10.892Z,2.67
2022-07-29T12:07:39.492Z,2.53
2022-07-29T12:10:11.580Z,2.67
2022-07-29T12:12:53.564Z,2.92
2022-07-29T12:15:24.915Z,2.50
2022-07-29T12:18:24.331Z,2.83
2022-07-29T12:20:58.844Z,3.17
2022-07-29T12:23:25.673Z,2.70
2022-07-29T12:25:56.406Z,2.83
2022-07-29T12:28:27.506Z,2.85
2022-07-29T12:30:54.799Z,2.75
2022-07-29T12:33:24.872Z,2.90
2022-07-29T12:36:15.658Z,3.10
2022-07-29T12:38:41.560Z,3.35
2022-07-29T12:41:09.331Z,2.75
2022-07-29T12:43:35.899Z,2.85
2022-07-29T12:46:14.416Z,3.05
2022-07-29T12:48:43.317Z,2.67
2022-07-29T12:51:12.438Z,3.20
2022-07-29T12:53:39.999Z,3.05
2022-07-29T12:56:20.732Z,3.00
2022-07-29T12:58:53.597Z,3.28
2022-07-29T13:01:21.037Z,3.55
2022-07-29T13:03:57.078Z,3.17
2022-07-29T13:06:33.148Z,3.60
2022-07-29T13:09:12.633Z,3.45
2022-07-29T13:11:50.280Z,3.40
2022-07-29T13:14:39.744Z,2.92
2022-07-29T13:17:16.654Z,3.20
2022-07-29T13:19:50.979Z,3.65
2022-07-29T13:22:21.414Z,3.40
2022-07-29T13:25:00.439Z,3.47
2022-07-29T13:27:33.031Z,3.30
2022-07-29T13:30:01.631Z,3.20
2022-07-29T13:32:30.716Z,3.05
2022-07-29T13:34:58.312Z,3.30
2022-07-29T13:37:25.261Z,3.20
2022-07-29T13:39:53.530Z,2.92
2022-07-29T13:42:20.695Z,3.40
2022-07-29T13:44:49.510Z,5.65
2022-07-29T13:47:17.062Z,3.28
2022-07-29T13:49:43.628Z,3.00
2022-07-29T13:52:10.665Z,3.00
2022-07-29T13:54:42.120Z,2.97
2022-07-29T13:57:11.502Z,2.75
2022-07-29T13:59:38.049Z,3.15
2022-07-29T14:02:04.632Z,2.97
2022-07-29T14:04:31.189Z,2.80
2022-07-29T14:07:23.388Z,2.90
2022-07-29T14:20:32.312Z,2.72
2022-07-29T14:22:58.800Z,2.53
2022-07-29T14:25:25.332Z,2.70
2022-07-29T14:27:53.996Z,2.53
2022-07-29T14:30:21.139Z,2.47
2022-07-29T14:32:47.836Z,2.55
2022-07-29T14:35:14.582Z,2.50
2022-07-29T14:37:41.223Z,3.03
2022-07-29T14:40:09.472Z,2.60
2022-07-29T14:42:37.031Z,2.50
2022-07-29T14:45:04.818Z,2.63
2022-07-29T14:47:31.344Z,2.90
2022-07-29T14:49:57.800Z,2.67
2022-07-29T14:52:24.231Z,2.90
2022-07-29T14:54:50.685Z,3.00
2022-07-29T14:57:17.495Z,2.38
2022-07-29T14:59:44.039Z,2.47
2022-07-29T15:02:10.677Z,2.17
2022-07-29T15:04:37.480Z,2.35
2022-07-29T15:07:04.680Z,2.42
2022-07-29T15:09:31.208Z,2.40
2022-07-29T15:11:58.029Z,2.38
2022-07-29T15:14:24.665Z,2.42
2022-07-29T15:16:52.759Z,2.20
2022-07-29T15:19:20.073Z,2.55
2022-07-29T15:21:48.559Z,2.65
2022-07-29T15:24:26.870Z,2.33
2022-07-29T15:26:54.383Z,2.30
2022-07-29T15:29:20.998Z,2.35
2022-07-29T15:31:47.490Z,1.83
2022-07-29T15:34:14.313Z,2.33
2022-07-29T15:36:56.350Z,2.30
2022-07-29T15:39:23.341Z,2.13
2022-07-29T15:41:50.574Z,2.40
2022-07-29T15:44:17.276Z,2.35
2022-07-29T15:47:02.759Z,1.98
2022-07-29T15:49:47.134Z,1.95
2022-07-29T15:52:17.916Z,1.83
2022-07-29T15:54:44.435Z,2.05
2022-07-29T15:57:10.943Z,2.08
2022-07-29T15:59:37.745Z,2.05
2022-07-29T16:02:05.232Z,2.10
2022-07-29T16:04:33.368Z,1.83
2022-07-29T16:07:00.553Z,1.92
2022-07-29T16:09:28.761Z,1.90
2022-07-29T16:11:56.196Z,2.00
2022-07-29T16:14:22.809Z,2.15
2022-07-29T16:16:49.332Z,2.08
2022-07-29T16:19:15.820Z,2.25
2022-07-29T16:21:42.528Z,1.73
2022-07-29T16:24:09.144Z,2.88
2022-07-29T16:26:35.832Z,2.28
2022-07-29T16:29:03.944Z,1.90
2022-07-29T16:31:30.661Z,2.13
2022-07-29T16:33:57.273Z,2.15
2022-07-29T16:36:23.805Z,2.42
2022-07-29T16:38:51.139Z,1.70
2022-07-29T16:41:17.674Z,1.80
2022-07-29T16:43:44.128Z,1.70
2022-07-29T16:46:14.024Z,2.00
2022-07-29T16:48:45.623Z,2.10
2022-07-29T16:51:14.388Z,1.67
2022-07-29T16:53:41.657Z,1.80
2022-07-29T16:56:11.189Z,1.90
2022-07-29T16:58:43.562Z,2.00
2022-07-29T17:01:11.483Z,1.70
2022-07-29T17:04:00.118Z,1.90
2022-07-29T17:06:28.586Z,2.10
2022-07-29T17:08:55.907Z,2.15
2022-07-29T17:11:22.399Z,2.30
2022-07-29T17:14:10.079Z,1.92
2022-07-29T17:16:36.621Z,1.85
2022-07-29T17:19:03.374Z,1.80
2022-07-29T17:21:29.820Z,1.85
2022-07-29T17:23:58.660Z,2.10
2022-07-29T17:26:25.194Z,2.65
2022-07-29T17:28:51.935Z,2.35
2022-07-29T17:31:18.431Z,2.25
2022-07-29T17:33:45.011Z,2.40
2022-07-29T17:36:29.463Z,4.43
2022-07-29T17:38:59.044Z,2.67
2022-07-29T17:41:26.636Z,2.00
2022-07-29T17:43:54.024Z,1.73
2022-07-29T17:46:22.719Z,2.40
2022-07-29T17:48:49.531Z,2.13
2022-07-29T17:51:16.064Z,2.10
2022-07-29T17:53:42.568Z,2.70
2022-07-29T17:56:09.092Z,1.83
2022-07-29T17:58:35.664Z,2.20
2022-07-29T18:01:02.188Z,2.00
2022-07-29T18:03:28.763Z,2.90
2022-07-29T18:05:55.328Z,2.95
2022-07-29T18:08:21.891Z,2.42
2022-07-29T18:10:48.337Z,2.13
2022-07-29T18:13:16.398Z,1.85
2022-07-29T18:15:45.000Z,1.80
2022-07-29T18:18:13.032Z,1.70
2022-07-29T18:20:39.541Z,1.75
2022-07-29T18:23:06.392Z,1.80
2022-07-29T18:25:32.831Z,3.85
2022-07-29T18:28:00.624Z,4.45
2022-07-29T18:30:29.137Z,8.23
2022-07-29T18:33:19.854Z,10.63
2022-07-29T18:35:44.152Z,6.70
2022-07-29T18:38:11.111Z,3.20
2022-07-29T18:40:39.971Z,2.30
2022-07-29T18:43:07.121Z,2.50
2022-07-29T18:45:33.828Z,1.90
2022-07-29T18:48:02.008Z,1.80
2022-07-29T18:50:30.013Z,1.92
2022-07-29T18:52:58.638Z,1.83
2022-07-29T18:55:26.102Z,1.63
2022-07-29T18:57:56.288Z,2.08
2022-07-29T19:00:24.870Z,1.90
2022-07-29T19:02:52.601Z,2.03
2022-07-29T19:05:19.508Z,2.15
2022-07-29T19:07:45.938Z,1.85
2022-07-29T19:10:13.416Z,1.98
2022-07-29T19:12:39.868Z,1.80
2022-07-29T19:15:07.552Z,1.65
2022-07-29T19:17:34.040Z,2.03
2022-07-29T19:20:00.872Z,1.83
2022-07-29T19:22:27.702Z,1.73
2022-07-29T19:24:54.252Z,2.10
2022-07-29T19:27:20.736Z,1.92
2022-07-29T19:29:47.263Z,5.05
2022-07-29T19:32:14.453Z,3.38
2022-07-29T19:35:10.161Z,2.05
2022-07-29T19:37:37.259Z,2.35
2022-07-29T19:40:04.606Z,1.90
2022-07-29T19:42:31.204Z,2.10
2022-07-29T19:44:57.611Z,1.70
2022-07-29T19:47:24.053Z,2.20
2022-07-29T19:49:50.630Z,2.00
2022-07-29T19:52:17.121Z,2.00
2022-07-29T19:54:43.538Z,2.08
2022-07-29T19:57:10.019Z,2.22
2022-07-29T19:59:36.696Z,2.20
2022-07-29T20:02:03.834Z,2.17
2022-07-29T20:04:30.463Z,2.33
2022-07-29T20:07:01.200Z,2.28
2022-07-29T20:09:28.411Z,2.20
2022-07-29T20:11:55.026Z,2.20
2022-07-29T20:14:21.641Z,2.20
2022-07-29T20:16:48.173Z,2.30
2022-07-29T20:19:14.881Z,2.30
2022-07-29T20:21:41.494Z,2.55
2022-07-29T20:24:08.651Z,2.13
2022-07-29T20:26:35.171Z,2.58
2022-07-29T20:29:04.986Z,2.38
2022-07-29T20:31:32.645Z,2.20
2022-07-29T20:34:00.567Z,2.20
2022-07-29T20:36:28.003Z,2.10
2022-07-29T20:38:55.194Z,2.40
2022-07-29T20:41:22.191Z,2.30
2022-07-29T20:43:49.752Z,2.33
2022-07-29T20:46:16.309Z,2.25
2022-07-29T20:48:42.870Z,2.13
2022-07-29T20:51:09.419Z,2.35
2022-07-29T20:53:38.389Z,2.42
2022-07-29T20:56:05.623Z,2.30
2022-07-29T20:58:33.967Z,2.20
2022-07-29T21:01:01.152Z,2.70
2022-07-29T21:03:27.594Z,2.30
2022-07-29T21:05:54.067Z,2.28
2022-07-29T21:08:20.547Z,2.25
2022-07-29T21:10:47.011Z,2.05
2022-07-29T21:13:14.291Z,2.13
2022-07-29T21:15:44.812Z,2.20
2022-07-29T21:18:26.809Z,2.30
2022-07-29T21:20:58.107Z,2.50
2022-07-29T21:23:26.238Z,2.17
2022-07-29T21:25:54.390Z,2.30
2022-07-29T21:28:26.664Z,2.67
2022-07-29T21:31:00.890Z,2.30
2022-07-29T21:33:28.799Z,2.47
2022-07-29T21:36:46.068Z,2.35
2022-07-29T21:38:42.429Z,2.28
2022-07-29T21:41:10.763Z,2.25
2022-07-29T21:43:37.296Z,2.60
2022-07-29T21:46:09.343Z,2.20
2022-07-29T21:48:35.863Z,2.17
2022-07-29T21:51:02.321Z,2.13
2022-07-29T21:53:28.786Z,2.60
2022-07-29T21:55:57.228Z,2.33
2022-07-29T21:58:24.496Z,2.42
2022-07-29T22:00:51.688Z,2.55
2022-07-29T22:03:18.347Z,2.67
2022-07-29T22:05:44.936Z,2.60
2022-07-29T22:08:11.451Z,2.65
2022-07-29T22:10:38.203Z,2.60
2022-07-29T22:13:04.740Z,2.47
2022-07-29T22:15:32.386Z,2.70
2022-07-29T22:17:59.304Z,2.78
2022-07-29T22:20:26.435Z,2.50
2022-07-29T22:22:53.567Z,2.60
2022-07-29T22:25:20.662Z,2.67
2022-07-29T22:27:47.363Z,2.78
2022-07-29T22:30:14.611Z,2.50
2022-07-29T22:32:41.457Z,2.72
2022-07-29T22:35:08.334Z,3.17
2022-07-29T22:37:34.976Z,2.70
2022-07-29T22:40:01.868Z,2.70
2022-07-29T22:42:28.372Z,2.63
2022-07-29T22:44:55.061Z,2.50
2022-07-29T22:47:46.620Z,2.30
2022-07-29T22:50:08.383Z,2.53
2022-07-29T22:52:34.838Z,2.30
2022-07-29T22:55:01.943Z,2.40
2022-07-29T22:57:28.385Z,2.35
2022-07-29T22:59:55.160Z,2.55
2022-07-29T23:02:21.591Z,2.67
2022-07-29T23:04:48.043Z,2.63
2022-07-29T23:07:14.474Z,2.40
2022-07-29T23:12:07.764Z,2.40
2022-07-29T23:14:34.203Z,2.50
2022-07-29T23:17:00.922Z,2.45
2022-07-29T23:19:27.602Z,2.30
2022-07-29T23:24:20.550Z,2.20
2022-07-29T23:26:47.107Z,2.55
2022-07-29T23:29:13.562Z,2.20
2022-07-29T23:31:41.836Z,2.50
2022-07-29T23:34:14.608Z,2.42
2022-07-29T23:36:42.142Z,2.40
2022-07-29T23:39:11.212Z,2.40
2022-07-29T23:41:37.781Z,2.58
2022-07-29T23:44:04.491Z,2.50
2022-07-29T23:46:31.016Z,2.38
2022-07-29T23:48:57.538Z,2.20
2022-07-29T23:51:24.920Z,2.70
2022-07-29T23:53:53.587Z,2.70
2022-07-29T23:56:21.221Z,2.60
2022-07-29T23:58:47.801Z,2.40
